createdAt,value
2022-10-19T00:09:10.538Z,100.00
2022-10-19T00:19:18.058Z,100.00
2022-10-19T00:29:19.656Z,100.00
2022-10-19T00:39:21.345Z,100.00
2022-10-19T00:49:28.459Z,100.00
2022-10-19T00:59:31.919Z,100.00
2022-10-19T01:09:33.973Z,100.00
2022-10-19T01:19:54.419Z,100.00
2022-10-19T01:30:08.635Z,100.00
2022-10-19T01:40:26.711Z,100.00
2022-10-19T01:51:00.711Z,100.00
2022-10-19T02:01:07.102Z,100.00
2022-10-19T02:11:10.043Z,100.00
2022-10-19T02:21:11.784Z,100.00
2022-10-19T02:31:14.422Z,100.00
2022-10-19T02:41:22.167Z,100.00
2022-10-19T02:51:50.247Z,100.00
2022-10-19T03:01:52.284Z,100.00
2022-10-19T03:11:55.877Z,100.00
2022-10-19T03:21:57.676Z,100.00
2022-10-19T03:31:59.328Z,100.00
2022-10-19T03:42:01.136Z,100.00
2022-10-19T03:52:02.739Z,100.00
2022-10-19T04:02:05.374Z,100.00
2022-10-19T04:12:07.366Z,100.00
2022-10-19T04:22:08.960Z,100.00
2022-10-19T04:32:18.487Z,100.00
2022-10-19T04:42:25.538Z,100.00
2022-10-19T04:52:27.352Z,100.00
2022-10-19T05:02:30.500Z,100.00
2022-10-19T05:12:32.126Z,100.00
2022-10-19T05:22:33.682Z,100.00
2022-10-19T05:32:35.842Z,100.00
2022-10-19T05:42:38.607Z,100.00
2022-10-19T05:52:43.400Z,100.00
2022-10-19T06:02:47.068Z,100.00
2022-10-19T06:12:48.681Z,100.00
2022-10-19T06:22:57.213Z,100.00
2022-10-19T06:32:59.742Z,100.00
2022-10-19T06:43:01.469Z,100.00
2022-10-19T06:53:03.078Z,100.00
2022-10-19T07:03:04.726Z,100.00
2022-10-19T07:13:06.472Z,100.00
2022-10-19T07:23:08.465Z,100.00
2022-10-19T07:33:10.242Z,100.00
2022-10-19T07:43:13.371Z,100.00
2022-10-19T07:53:14.966Z,100.00
2022-10-19T08:03:57.590Z,100.00
2022-10-19T08:13:39.454Z,89.11
2022-10-19T08:23:41.544Z,79.93
2022-10-19T08:33:44.146Z,74.64
2022-10-19T08:44:27.859Z,66.68
2022-10-19T08:54:52.702Z,59.63
2022-10-19T09:05:11.265Z,57.40
2022-10-19T09:15:17.776Z,52.90
2022-10-19T09:25:25.517Z,50.75
2022-10-19T09:35:27.292Z,47.12
2022-10-19T09:45:40.076Z,43.12
2022-10-19T09:55:44.008Z,40.98
2022-10-19T10:05:48.006Z,43.33
2022-10-19T10:15:56.005Z,44.70
2022-10-19T10:26:00.859Z,44.42
2022-10-19T10:36:07.050Z,38.76
2022-10-19T10:46:16.585Z,38.43
2022-10-19T10:56:25.911Z,34.44
2022-10-19T11:06:28.428Z,27.80
2022-10-19T11:16:42.924Z,30.35
2022-10-19T11:26:57.935Z,26.73
2022-10-19T11:38:18.127Z,25.83
2022-10-19T11:48:54.774Z,24.45
2022-10-19T11:59:15.181Z,23.04
2022-10-19T12:09:37.028Z,24.53
2022-10-19T12:19:48.219Z,21.14
2022-10-19T12:29:50.415Z,20.77
2022-10-19T12:39:58.616Z,18.19
2022-10-19T12:50:00.267Z,22.19
2022-10-19T13:00:07.269Z,19.58
2022-10-19T13:10:20.115Z,20.54
2022-10-19T13:20:22.033Z,18.68
2022-10-19T13:30:40.755Z,18.98
2022-10-19T13:40:49.093Z,18.95
2022-10-19T13:51:16.879Z,18.90
2022-10-19T14:01:27.748Z,20.37
2022-10-19T14:11:41.084Z,21.93
2022-10-19T14:21:42.854Z,21.72
2022-10-19T14:31:44.523Z,24.35
2022-10-19T14:41:46.157Z,35.98
2022-10-19T14:51:54.449Z,41.62
2022-10-19T15:02:00.343Z,41.44
2022-10-19T15:12:20.029Z,40.26
2022-10-19T15:22:30.796Z,43.48
2022-10-19T15:32:38.492Z,45.16
2022-10-19T15:42:45.669Z,46.92
2022-10-19T15:52:53.738Z,47.35
2022-10-19T16:03:01.529Z,50.54
2022-10-19T16:13:07.540Z,50.69
2022-10-19T16:23:10.799Z,50.25
2022-10-19T16:33:13.210Z,51.10
2022-10-19T16:43:14.903Z,54.50
2022-10-19T16:53:16.686Z,52.70
2022-10-19T17:03:18.783Z,53.65
2022-10-19T17:13:20.933Z,56.37
2022-10-19T17:23:24.635Z,57.55
2022-10-19T17:33:27.706Z,62.30
2022-10-19T17:43:30.086Z,63.87
2022-10-19T17:53:33.282Z,61.36
2022-10-19T18:03:36.839Z,65.56
2022-10-19T18:13:40.108Z,69.36
2022-10-19T18:23:42.771Z,72.05
2022-10-19T18:33:45.772Z,72.81
2022-10-19T18:43:54.811Z,78.94
2022-10-19T18:53:56.923Z,82.15
2022-10-19T19:04:07.040Z,87.84
2022-10-19T19:14:17.740Z,98.30
2022-10-19T19:24:24.018Z,100.00
2022-10-19T19:34:26.189Z,100.00
2022-10-19T19:44:34.681Z,100.00
2022-10-19T19:54:36.468Z,100.00
2022-10-19T20:04:39.158Z,100.00
2022-10-19T20:14:41.615Z,100.00
2022-10-19T20:24:48.543Z,100.00
2022-10-19T20:34:51.524Z,100.00
2022-10-19T20:44:55.669Z,100.00
2022-10-19T20:55:02.030Z,100.00
2022-10-19T21:05:06.474Z,100.00
2022-10-19T21:15:08.894Z,100.00
2022-10-19T21:25:10.608Z,100.00
2022-10-19T21:35:12.195Z,100.00
2022-10-19T21:45:30.725Z,100.00
2022-10-19T21:55:37.828Z,100.00
2022-10-19T22:05:39.843Z,100.00
2022-10-19T22:15:41.828Z,100.00
2022-10-19T22:25:43.415Z,100.00
2022-10-19T22:36:08.510Z,100.00
2022-10-19T22:46:10.481Z,100.00
2022-10-19T22:56:20.170Z,100.00
2022-10-19T23:06:22.087Z,100.00
2022-10-19T23:16:23.824Z,100.00
2022-10-19T23:26:25.808Z,100.00
2022-10-19T23:36:29.139Z,100.00
2022-10-19T23:46:31.170Z,100.00
2022-10-19T23:56:32.883Z,100.00
